Gorst, Washington
Current Conditions -  °F | °C
As of 3:35 PM on Friday 31 Oct 2014 (Local Time) from KPWT Reporting Station
Broken Clouds Broken Clouds  
Wind Chill: 54°   Ceiling: 1500
Heat Index: 54°   Visibility: 10mi
Dew Point: 50°   Wind: 10mph
Humidity: 88%   Direction: 180°S
Pressure: 29.84"   Gusts: NA
Location:  47.5661°N, 122.637°W
Report Text: KPWT 312235Z AUTO 18009KT 10SM BKN015 12/10 A2984 RMK AO1
Loading
Personal Weather Stations






























Interactive Weather Map
Tropical Storm Tracking
New forecast layout! Learn more

10-Day Weather Forecast

Advertisements
Track Severe Weather on mobile